createdAt,value
2022-10-17T00:00:11.967Z,99018.95
2022-10-17T00:03:53.381Z,99018.09
2022-10-17T00:07:31.300Z,99013.03
2022-10-17T00:11:21.507Z,99016.93
2022-10-17T00:14:46.330Z,99017.51
2022-10-17T00:18:43.199Z,99022.27
2022-10-17T00:22:03.858Z,99021.37
2022-10-17T00:25:42.102Z,99027.11
2022-10-17T00:29:19.210Z,99024.59
2022-10-17T00:32:57.027Z,99022.55
2022-10-17T00:36:53.386Z,99030.79
2022-10-17T00:40:14.072Z,99031.87
2022-10-17T00:43:52.680Z,99034.92
2022-10-17T00:47:30.765Z,99036.16
2022-10-17T00:51:07.175Z,99039.68
2022-10-17T00:54:49.472Z,99037.14
2022-10-17T00:58:22.248Z,99034.13
2022-10-17T01:02:20.937Z,99034.92
2022-10-17T01:05:42.398Z,99035.48
2022-10-17T01:09:19.387Z,99034.03
2022-10-17T01:13:11.213Z,99037.02
2022-10-17T01:17:07.084Z,99035.88
2022-10-17T01:20:40.623Z,99037.20
2022-10-17T01:24:49.026Z,99036.10
2022-10-17T01:28:16.699Z,99032.74
2022-10-17T01:32:07.166Z,99034.30
2022-10-17T01:36:27.178Z,99038.90
2022-10-17T01:40:04.289Z,99041.64
2022-10-17T01:43:40.094Z,99042.34
2022-10-17T01:47:09.043Z,99046.75
2022-10-17T01:51:09.622Z,99045.58
2022-10-17T01:54:51.460Z,99045.67
2022-10-17T01:58:37.903Z,99050.02
2022-10-17T02:02:01.390Z,99049.71
2022-10-17T02:05:55.843Z,99045.45
2022-10-17T02:09:35.759Z,99043.33
2022-10-17T02:13:23.475Z,99044.84
2022-10-17T02:17:35.052Z,99046.15
2022-10-17T02:21:08.664Z,99046.62
2022-10-17T02:24:52.749Z,99048.47
2022-10-17T02:28:51.096Z,99051.81
2022-10-17T02:35:54.018Z,99053.34
2022-10-17T02:39:29.406Z,99052.61
2022-10-17T02:43:05.459Z,99051.02
2022-10-17T02:46:48.825Z,99050.81
2022-10-17T02:54:18.060Z,99052.27
2022-10-17T02:58:23.178Z,99054.70
2022-10-17T03:01:44.661Z,99051.91
2022-10-17T03:05:24.283Z,99045.85
2022-10-17T03:08:59.198Z,99044.70
2022-10-17T03:12:36.815Z,99052.09
2022-10-17T03:16:14.489Z,99053.21
2022-10-17T03:19:52.358Z,99057.90
2022-10-17T03:23:48.741Z,99060.16
2022-10-17T03:27:10.603Z,99074.16
2022-10-17T03:30:48.291Z,99079.30
2022-10-17T03:34:25.436Z,99084.43
2022-10-17T03:38:22.123Z,99088.28
2022-10-17T03:41:42.620Z,99091.62
2022-10-17T03:45:20.163Z,99089.10
2022-10-17T03:48:57.818Z,99089.65
2022-10-17T03:52:38.584Z,99089.35
2022-10-17T03:56:19.479Z,99096.23
2022-10-17T03:59:52.479Z,99099.71
2022-10-17T04:03:52.487Z,99093.47
2022-10-17T04:07:13.565Z,99091.70
2022-10-17T04:10:50.898Z,99091.45
2022-10-17T04:14:28.747Z,99094.94
2022-10-17T04:18:06.358Z,99093.70
2022-10-17T04:21:44.073Z,99101.41
2022-10-17T04:25:40.586Z,99106.85
2022-10-17T04:29:01.309Z,99100.86
2022-10-17T04:32:39.437Z,99099.20
2022-10-17T04:36:19.869Z,99104.35
2022-10-17T04:39:54.336Z,99107.22
2022-10-17T04:43:51.421Z,99108.20
2022-10-17T04:47:13.320Z,99108.82
2022-10-17T04:51:16.351Z,99106.91
2022-10-17T04:54:54.592Z,99105.67
2022-10-17T04:58:32.380Z,99106.87
2022-10-17T05:02:10.068Z,99099.50
2022-10-17T05:05:48.437Z,99099.67
2022-10-17T05:09:25.429Z,99098.71
2022-10-17T05:13:03.486Z,99104.64
2022-10-17T05:16:40.694Z,99107.05
2022-10-17T05:20:18.423Z,99102.64
2022-10-17T05:23:56.248Z,99103.13
2022-10-17T05:27:33.787Z,99104.24
2022-10-17T05:31:31.160Z,99105.79
2022-10-17T05:34:51.979Z,99112.84
2022-10-17T05:38:29.575Z,99117.21
2022-10-17T05:42:07.786Z,99119.91
2022-10-17T05:45:44.967Z,99120.88
2022-10-17T05:49:33.262Z,99129.45
2022-10-17T05:53:23.851Z,99142.45
2022-10-17T05:56:45.191Z,99148.31
2022-10-17T06:00:22.881Z,99151.73
2022-10-17T06:04:00.567Z,99151.68
2022-10-17T06:07:38.258Z,99153.80
2022-10-17T06:11:16.015Z,99156.88
2022-10-17T06:14:53.493Z,99162.60
2022-10-17T06:18:31.361Z,99169.34
2022-10-17T06:22:28.030Z,99173.95
2022-10-17T06:25:51.036Z,99180.34
2022-10-17T06:29:47.271Z,99185.41
2022-10-17T06:33:26.928Z,99184.27
2022-10-17T06:36:48.855Z,99181.96
2022-10-17T06:40:26.444Z,99186.41
2022-10-17T06:44:24.709Z,99192.33
2022-10-17T06:48:04.003Z,99205.69
2022-10-17T06:51:41.468Z,99209.77
2022-10-17T06:55:22.640Z,99213.23
2022-10-17T06:59:03.609Z,99222.48
2022-10-17T07:02:43.925Z,99214.55
2022-10-17T07:06:19.369Z,99214.91
2022-10-17T07:09:56.727Z,99218.89
2022-10-17T07:13:38.846Z,99227.08
2022-10-17T07:17:13.455Z,99230.94
2022-10-17T07:20:54.646Z,99234.48
2022-10-17T07:24:46.363Z,99234.42
2022-10-17T07:36:28.234Z,99247.73
2022-10-17T07:40:07.710Z,99251.95
2022-10-17T07:44:01.626Z,99250.10
2022-10-17T07:47:27.484Z,99247.45
2022-10-17T07:51:07.696Z,99242.86
2022-10-17T07:55:01.331Z,99235.60
2022-10-17T07:58:40.333Z,99236.93
2022-10-17T08:02:01.298Z,99236.18
2022-10-17T08:05:38.433Z,99235.30
2022-10-17T08:09:16.235Z,99235.94
2022-10-17T08:12:54.752Z,99241.83
2022-10-17T08:16:50.262Z,99245.61
2022-10-17T08:20:12.108Z,99243.92
2022-10-17T08:23:48.472Z,99249.97
2022-10-17T08:27:27.957Z,99251.66
2022-10-17T08:31:12.117Z,99253.95
2022-10-17T08:34:41.562Z,99252.41
2022-10-17T08:38:21.036Z,99254.21
2022-10-17T08:42:08.120Z,99251.36
2022-10-17T08:46:04.397Z,99249.34
2022-10-17T08:49:52.658Z,99248.44
2022-10-17T08:53:26.407Z,99250.58
2022-10-17T08:57:15.486Z,99252.02
2022-10-17T09:00:36.474Z,99253.88
2022-10-17T09:04:45.611Z,99253.46
2022-10-17T09:08:34.652Z,99251.19
2022-10-17T09:12:20.455Z,99249.60
2022-10-17T09:16:01.393Z,99247.38
2022-10-17T09:20:04.440Z,99249.02
2022-10-17T09:23:29.975Z,99251.73
2022-10-17T09:27:03.815Z,99247.41
2022-10-17T09:30:45.542Z,99248.92
2022-10-17T09:34:18.085Z,99253.58
2022-10-17T09:37:55.848Z,99253.38
2022-10-17T09:41:45.836Z,99253.66
2022-10-17T09:45:11.037Z,99250.27
2022-10-17T09:52:48.666Z,99254.20
2022-10-17T09:56:16.330Z,99256.75
2022-10-17T09:59:56.596Z,99256.55
2022-10-17T10:03:27.327Z,99260.24
2022-10-17T10:07:07.104Z,99259.95
2022-10-17T10:10:43.768Z,99250.22
2022-10-17T10:14:39.668Z,99248.73
2022-10-17T10:18:00.941Z,99249.04
2022-10-17T10:21:59.794Z,99248.93
2022-10-17T10:25:21.224Z,99248.73
2022-10-17T10:29:05.390Z,99251.15
2022-10-17T10:32:37.849Z,99249.33
2022-10-17T10:36:53.399Z,99244.92
2022-10-17T10:40:38.669Z,99241.14
2022-10-17T10:43:59.154Z,99239.92
2022-10-17T10:48:38.145Z,99238.48
2022-10-17T10:52:03.226Z,99235.73
2022-10-17T10:56:20.631Z,99230.45
2022-10-17T11:00:24.483Z,99226.84
2022-10-17T11:04:08.020Z,99226.52
2022-10-17T11:07:36.187Z,99222.31
2022-10-17T11:11:45.921Z,99226.23
2022-10-17T11:15:28.356Z,99223.84
2022-10-17T11:19:14.440Z,99225.38
2022-10-17T11:22:45.513Z,99227.98
2022-10-17T11:26:27.080Z,99227.69
2022-10-17T11:29:52.764Z,99226.42
2022-10-17T11:33:50.042Z,99223.86
2022-10-17T11:37:23.011Z,99223.10
2022-10-17T11:40:52.258Z,99222.52
2022-10-17T11:44:34.310Z,99217.64
2022-10-17T11:48:13.859Z,99220.02
2022-10-17T11:52:44.292Z,99216.66
2022-10-17T11:56:12.195Z,99214.27
2022-10-17T12:00:18.960Z,99212.64
2022-10-17T12:03:43.353Z,99211.54
2022-10-17T12:07:33.883Z,99210.16
2022-10-17T12:11:42.976Z,99208.49
2022-10-17T12:15:13.371Z,99203.63
2022-10-17T12:19:00.855Z,99206.81
2022-10-17T12:22:26.339Z,99201.30
2022-10-17T12:26:05.552Z,99195.04
2022-10-17T12:29:44.804Z,99197.89
2022-10-17T12:33:30.232Z,99191.89
2022-10-17T12:37:00.323Z,99190.13
2022-10-17T12:40:57.600Z,99191.44
2022-10-17T12:44:21.424Z,99192.03
2022-10-17T12:48:32.887Z,99190.88
2022-10-17T12:52:18.452Z,99187.96
2022-10-17T12:55:40.490Z,99188.90
2022-10-17T12:59:21.713Z,99189.75
2022-10-17T13:03:11.233Z,99193.24
2022-10-17T13:06:58.603Z,99192.73
2022-10-17T13:14:00.697Z,99191.60
2022-10-17T13:17:34.961Z,99188.77
2022-10-17T13:21:16.512Z,99191.26
2022-10-17T13:24:52.103Z,99186.27
2022-10-17T13:28:29.240Z,99185.59
2022-10-17T13:32:06.103Z,99183.04
2022-10-17T13:35:59.538Z,99178.19
2022-10-17T13:39:45.323Z,99175.42
2022-10-17T13:43:20.162Z,99167.49
2022-10-17T13:46:48.896Z,99163.81
2022-10-17T13:50:45.296Z,99166.96
2022-10-17T13:54:28.530Z,99158.46
2022-10-17T13:58:14.965Z,99158.89
2022-10-17T14:01:37.888Z,99156.85
2022-10-17T14:05:18.295Z,99159.34
2022-10-17T14:09:05.621Z,99155.30
2022-10-17T14:12:28.419Z,99153.39
2022-10-17T14:16:08.579Z,99152.29
2022-10-17T14:19:46.041Z,99154.70
2022-10-17T14:23:43.250Z,99153.12
2022-10-17T14:27:03.660Z,99154.14
2022-10-17T14:30:56.719Z,99158.38
2022-10-17T14:34:34.450Z,99157.48
2022-10-17T14:38:03.575Z,99157.78
2022-10-17T14:41:53.616Z,99159.71
2022-10-17T14:45:23.734Z,99159.67
2022-10-17T14:48:59.078Z,99160.05
2022-10-17T14:52:31.649Z,99159.70
2022-10-17T14:56:34.278Z,99161.05
2022-10-17T15:00:18.777Z,99156.73
2022-10-17T15:03:39.168Z,99151.60
2022-10-17T15:07:18.091Z,99154.48
2022-10-17T15:10:54.512Z,99150.58
2022-10-17T15:14:33.448Z,99144.08
2022-10-17T15:18:12.051Z,99141.25
2022-10-17T15:21:47.542Z,99141.30
2022-10-17T15:25:26.966Z,99136.74
2022-10-17T15:29:21.632Z,99135.50
2022-10-17T15:32:42.003Z,99133.80
2022-10-17T15:36:32.411Z,99130.81
2022-10-17T15:39:57.417Z,99126.96
2022-10-17T15:43:53.884Z,99121.16
2022-10-17T15:47:33.852Z,99120.87
2022-10-17T15:51:14.083Z,99120.46
2022-10-17T15:54:35.513Z,99122.11
2022-10-17T15:58:16.467Z,99118.38
2022-10-17T16:02:13.860Z,99117.48
2022-10-17T16:05:34.901Z,99129.71
2022-10-17T16:09:12.598Z,99133.81
2022-10-17T16:12:50.377Z,99132.96
2022-10-17T16:16:28.468Z,99133.30
2022-10-17T16:20:06.612Z,99128.06
2022-10-17T16:23:43.943Z,99128.77
2022-10-17T16:27:20.833Z,99124.14
2022-10-17T16:30:58.792Z,99127.73
2022-10-17T16:34:55.010Z,99125.70
2022-10-17T16:38:15.779Z,99127.89
2022-10-17T16:41:54.922Z,99123.44
2022-10-17T16:45:31.151Z,99124.13
2022-10-17T16:49:27.540Z,99130.86
2022-10-17T16:52:48.279Z,99129.72
2022-10-17T16:56:44.620Z,99133.62
2022-10-17T17:00:06.644Z,99133.57
2022-10-17T17:03:46.082Z,99132.17
2022-10-17T17:07:21.933Z,99131.45
2022-10-17T17:10:58.936Z,99131.48
2022-10-17T17:14:36.386Z,99125.83
2022-10-17T17:18:16.682Z,99121.86
2022-10-17T17:22:10.208Z,99125.92
2022-10-17T17:25:30.772Z,99132.57
2022-10-17T17:29:09.166Z,99133.20
2022-10-17T17:32:46.690Z,99129.52
2022-10-17T17:36:26.808Z,99126.35
2022-10-17T17:40:01.598Z,99124.46
2022-10-17T17:43:39.873Z,99128.26
2022-10-17T17:47:16.748Z,99129.31
2022-10-17T17:50:54.749Z,99129.96
2022-10-17T17:54:33.038Z,99133.70
2022-10-17T17:58:12.341Z,99134.01
2022-10-17T18:02:08.141Z,99137.19
2022-10-17T18:05:29.757Z,99136.30
2022-10-17T18:09:08.261Z,99143.54
2022-10-17T18:12:44.568Z,99143.70
2022-10-17T18:16:22.912Z,99147.72
2022-10-17T18:19:59.994Z,99152.14
2022-10-17T18:23:56.339Z,99147.77
2022-10-17T18:27:16.980Z,99149.11
2022-10-17T18:31:23.366Z,99142.77
2022-10-17T18:34:44.260Z,99142.77
2022-10-17T18:38:41.920Z,99140.29
2022-10-17T18:42:22.745Z,99143.73
2022-10-17T18:45:43.107Z,99145.02
2022-10-17T18:49:25.172Z,99145.43
2022-10-17T18:53:17.286Z,99145.05
2022-10-17T18:56:38.183Z,99142.79
2022-10-17T19:00:17.368Z,99145.04
2022-10-17T19:04:12.847Z,99148.29
2022-10-17T19:07:33.798Z,99145.77
2022-10-17T19:11:31.678Z,99145.19
2022-10-17T19:14:53.116Z,99140.89
2022-10-17T19:18:29.632Z,99138.21
2022-10-17T19:22:09.544Z,99137.14
2022-10-17T19:25:45.063Z,99138.25
2022-10-17T19:29:27.566Z,99140.22
2022-10-17T19:33:00.558Z,99133.14
2022-10-17T19:36:38.504Z,99133.77
2022-10-17T19:40:40.212Z,99129.01
2022-10-17T19:47:40.960Z,99129.85
2022-10-17T19:51:20.252Z,99130.05
2022-10-17T19:55:15.043Z,99128.66
2022-10-17T19:58:45.138Z,99128.69
2022-10-17T20:02:14.096Z,99125.64
2022-10-17T20:05:52.190Z,99127.07
2022-10-17T20:09:28.778Z,99125.90
2022-10-17T20:13:06.347Z,99128.11
2022-10-17T20:16:50.132Z,99125.45
2022-10-17T20:20:21.932Z,99123.73
2022-10-17T20:24:00.805Z,99120.30
2022-10-17T20:27:55.823Z,99115.00
2022-10-17T20:31:19.020Z,99111.52
2022-10-17T20:34:54.669Z,99117.92
2022-10-17T20:38:58.000Z,99120.60
2022-10-17T20:42:37.992Z,99118.76
2022-10-17T20:46:08.521Z,99118.51
2022-10-17T20:49:37.323Z,99119.23
2022-10-17T20:53:37.691Z,99117.55
2022-10-17T20:57:01.205Z,99119.25
2022-10-17T21:00:40.718Z,99119.61
2022-10-17T21:04:44.840Z,99115.20
2022-10-17T21:07:56.233Z,99112.05
2022-10-17T21:11:33.818Z,99110.33
2022-10-17T21:15:12.004Z,99107.73
2022-10-17T21:18:49.461Z,99107.95
2022-10-17T21:22:27.258Z,99106.51
2022-10-17T21:26:05.963Z,99105.60
2022-10-17T21:29:42.690Z,99104.35
2022-10-17T21:33:21.661Z,99107.23
2022-10-17T21:36:57.760Z,99109.92
2022-10-17T21:40:56.030Z,99114.10
2022-10-17T21:44:19.682Z,99111.33
2022-10-17T21:48:12.172Z,99113.74
2022-10-17T21:51:34.370Z,99117.83
2022-10-17T21:55:11.768Z,99116.31
2022-10-17T21:58:50.997Z,99115.70
2022-10-17T22:02:28.864Z,99113.58
2022-10-17T22:06:12.915Z,99114.52
2022-10-17T22:09:48.917Z,99116.66
2022-10-17T22:13:25.927Z,99112.87
2022-10-17T22:17:03.657Z,99113.59
2022-10-17T22:20:41.612Z,99112.90
2022-10-17T22:28:15.463Z,99106.89
2022-10-17T22:31:37.357Z,99099.67
2022-10-17T22:35:14.140Z,99099.03
2022-10-17T22:39:10.729Z,99097.02
2022-10-17T22:42:34.416Z,99097.20
2022-10-17T22:46:10.279Z,99094.02
2022-10-17T22:49:46.829Z,99094.22
2022-10-17T22:53:43.180Z,99092.10
2022-10-17T22:57:03.325Z,99088.33
2022-10-17T23:00:40.972Z,99087.49
2022-10-17T23:04:18.646Z,99086.66
2022-10-17T23:07:57.448Z,99089.20
2022-10-17T23:11:33.981Z,99082.35
2022-10-17T23:15:11.704Z,99083.32
2022-10-17T23:18:49.592Z,99088.08
2022-10-17T23:22:27.130Z,99084.48
2022-10-17T23:26:12.832Z,99081.64
2022-10-17T23:29:42.375Z,99081.09
2022-10-17T23:33:40.596Z,99080.16
2022-10-17T23:37:01.316Z,99074.73
2022-10-17T23:40:39.101Z,99071.66
2022-10-17T23:44:16.581Z,99069.14
2022-10-17T23:47:54.871Z,99073.11
2022-10-17T23:51:50.892Z,99078.02
2022-10-17T23:55:12.425Z,99082.36
2022-10-17T23:58:49.185Z,99081.65
